Panama, IL (62077)

3:07 AM CDT on July 14, 2014 (GMT -0500)
Eckcellent Karaoke (KILHILLS4) Elev 614 ft | 39.16 °N, 89.50 °W | Change Station

Current weather conditions updated 0 second ago

Clear
Clear
71.0 °F
Feels Like 71.0 °F
N
0.0
Wind Variable Wind from NE
Gusts 0.0 mph

Today is forecast to be Cooler than yesterday. Afternoon showers and thunderstorms.

Today
High -- | Low -- °F
--% Chance of Precip.
Yesterday
High -- | Low -- °F
Precip. -- in
5:43 AM 8:23 PM
Waning Gibbous, 95% visible
Pressure 29.93 in
Visibility 7.0 miles
Clouds Clear
Dew Point 70 °F
Humidity 98%
Rainfall 0.00 in
Snow Depth Not available.
UV 0 out of 12
Pollen 4.10 out of 12
Air Quality Not available.
Flu Activity Sporadic
METAR K3LF 140755Z AUTO 26003KT 7SM CLR 21/21 A2993 RMK AO2 LTG DSNT E THRU S T02090207

More Conditions Fewer Conditions

Pressure 29.93 in
Visibility 7.0 miles
Clouds Clear
Dew Point 70 °F
Humidity 98%
Rainfall 0.00 in
Snow Depth Not available.
UV 0 out of 12
Pollen 4.10 out of 12
Air Quality Not available.
Flu Activity Sporadic
METAR K3LF 140755Z AUTO 26003KT 7SM CLR 21/21 A2993 RMK AO2 LTG DSNT E THRU S T02090207

More Conditions Fewer Conditions

10-Day Weather Forecast

Almanac

Astronomy

Jul. 14, 2014 Rise Set
Actual Time 5:43 AM CDT 8:23 PM CDT
Civil Twilight 5:12 AM CDT 8:54 PM CDT
Nautical Twilight 4:33 AM CDT 9:33 PM CDT
Astronomical Twilight 3:49 AM CDT 10:17 PM CDT
Moon 9:55 PM CDT 8:25 AM CDT
Length of Visible Light 15h 42m
Length of Day
14h 39m
Tomorrow will be 1m 17s shorter.
Waning Gibbous, 95% of the Moon is Illuminated
Today
Waning Gibbous
Jul 18
Last Quarter
Jul 26
New
Aug 3
First Quarter
Aug 10
Full

Today's Extremes

State Highs State Lows

Community

WunderPhotos

Upload Photos

1,733,572 photos uploaded!

Nearby

Snow Depth

Station Depth Elevation
No new snow has been reported.

Earthquake Activity

City Distance Mag. Time & Date
No recent earthquake activity has been reported nearby.
Minimum magnitude displayed is 2.5.

Coastal Water Temperatures

Place Temperature
No Stations Reporting

Nearby Weather Stations

Station Location Temp. Heat Index Dew Point Humidity Wind Precip. Elev Updated Type
MesoWest WALSHJ , Grisham, IL 73 °F 71 °F - - North  at  - 0.00 in / hr 586 ft 1:25 AM CDT MADIS
Eckcellent Karaoke, Hillsboro, IL 71.0 °F - 70 °F 98% NE  at  0.0 mph 0.00 in / hr 614 ft 3:07 AM CDT Rapid Fire
Rezy Road, Staunton, IL 72.7 °F - 71 °F 96% WSW  at  0.0 mph 0.00 in / hr 630 ft 3:07 AM CDT Rapid Fire
North Benld, Benld, IL 70.8 °F - 70 °F 98% West  at  0.0 mph 0.06 in / hr 636 ft 3:07 AM CDT Rapid Fire
MesoWest GARD , Hamel, IL 74 °F 72 °F - - North  at  - 0.00 in / hr 548 ft 1:40 AM CDT MADIS
MesoWest NOKOMS , Nokomis, IL 75 °F 73 °F - - North  at  - 0.00 in / hr 659 ft 1:25 AM CDT MADIS
Knight Compound, Dorsey, IL 73.0 °F - 72 °F 98% NE  at  0.0 mph 0.00 in / hr 550 ft 3:07 AM CDT Rapid Fire

Show More Stations Show Fewer Stations